createdAt,value
2018-02-20T00:01:51.350Z,94833.24
2018-02-20T00:04:18.691Z,94875.01
2018-02-20T00:06:46.524Z,94871.42
2018-02-20T00:09:13.882Z,94808.73
2018-02-20T00:11:41.268Z,94852.58
2018-02-20T00:14:08.605Z,94855.02
2018-02-20T00:16:36.032Z,94863.32
2018-02-20T00:19:03.378Z,94807.25
2018-02-20T00:21:31.356Z,94829.66
2018-02-20T00:23:58.696Z,94851.81
2018-02-20T00:26:26.102Z,94861.79
2018-02-20T00:28:53.443Z,94868.78
2018-02-20T00:31:20.812Z,94853.52
2018-02-20T00:33:48.200Z,94816.83
2018-02-20T00:36:15.666Z,94828.84
2018-02-20T00:38:43.074Z,94836.38
2018-02-20T00:41:10.593Z,94816.61
2018-02-20T00:43:38.044Z,94811.72
2018-02-20T00:46:05.495Z,94824.53
2018-02-20T00:48:32.870Z,94790.88
2018-02-20T00:51:00.358Z,94806.81
2018-02-20T00:53:27.780Z,94833.34
2018-02-20T00:55:55.210Z,94823.77
2018-02-20T00:58:22.562Z,94834.85
2018-02-20T01:00:50.029Z,94830.33
2018-02-20T01:03:17.671Z,94833.57
2018-02-20T01:05:45.087Z,94812.09
2018-02-20T01:08:12.489Z,94814.44
2018-02-20T01:10:39.998Z,94812.65
2018-02-20T01:13:07.714Z,94782.63
2018-02-20T01:15:35.280Z,94828.08
2018-02-20T01:18:02.899Z,94831.09
2018-02-20T01:20:31.022Z,94812.14
2018-02-20T01:22:58.458Z,94687.01
2018-02-20T01:25:25.839Z,94787.05
2018-02-20T01:27:53.180Z,94833.19
2018-02-20T01:30:20.576Z,94818.48
2018-02-20T01:32:47.985Z,94797.98
2018-02-20T01:35:15.409Z,94799.31
2018-02-20T01:37:42.789Z,94793.86
2018-02-20T01:40:10.168Z,94776.91
2018-02-20T01:42:37.530Z,94805.87
2018-02-20T01:45:04.930Z,94811.70
2018-02-20T01:47:32.307Z,94801.31
2018-02-20T01:49:59.688Z,94786.70
2018-02-20T01:52:27.030Z,94799.48
2018-02-20T01:54:54.560Z,94792.16
2018-02-20T01:57:22.100Z,94774.65
2018-02-20T01:59:49.442Z,94791.34
2018-02-20T02:02:16.968Z,94775.33
2018-02-20T02:04:44.497Z,94787.76
2018-02-20T02:07:12.173Z,94735.13
2018-02-20T02:09:39.867Z,94737.93
2018-02-20T02:12:07.216Z,94769.48
2018-02-20T02:14:34.640Z,94785.89
2018-02-20T02:17:02.106Z,94772.94
2018-02-20T02:19:29.446Z,94787.59
2018-02-20T02:21:57.102Z,94783.34
2018-02-20T02:24:24.522Z,94767.48
2018-02-20T02:26:52.142Z,94764.08
2018-02-20T02:29:19.604Z,94771.58
2018-02-20T02:31:47.131Z,94747.50
2018-02-20T02:34:14.656Z,94784.30
2018-02-20T02:36:42.056Z,94750.64
2018-02-20T02:39:09.459Z,94745.20
2018-02-20T02:41:36.819Z,94794.66
2018-02-20T02:44:04.163Z,94747.41
2018-02-20T02:46:31.542Z,94743.84
2018-02-20T02:48:58.905Z,94689.67
2018-02-20T02:51:26.296Z,94800.97
2018-02-20T02:53:53.697Z,94773.48
2018-02-20T02:56:21.081Z,94778.94
2018-02-20T02:58:48.448Z,94771.34
2018-02-20T03:01:15.820Z,94749.92
2018-02-20T03:03:43.455Z,94770.23
2018-02-20T03:06:11.056Z,94789.45
2018-02-20T03:08:38.454Z,94771.89
2018-02-20T03:11:05.841Z,94770.58
2018-02-20T03:13:33.945Z,94785.06
2018-02-20T03:16:01.390Z,94751.56
2018-02-20T03:18:28.994Z,94773.78
2018-02-20T03:20:56.633Z,94787.50
2018-02-20T03:23:25.631Z,94754.92
2018-02-20T03:25:53.210Z,94783.68
2018-02-20T03:28:20.566Z,94733.08
2018-02-20T03:30:47.975Z,94716.11
2018-02-20T03:33:15.348Z,94710.30
2018-02-20T03:35:42.868Z,94773.94
2018-02-20T03:38:10.288Z,94767.20
2018-02-20T03:40:37.676Z,94755.70
2018-02-20T03:43:05.198Z,94759.96
2018-02-20T03:45:32.606Z,94732.41
2018-02-20T03:48:00.065Z,94764.07
2018-02-20T03:50:27.485Z,94752.19
2018-02-20T03:52:54.879Z,94748.59
2018-02-20T03:55:22.311Z,94766.80
2018-02-20T03:57:49.825Z,94763.02
2018-02-20T04:00:17.314Z,94746.49
2018-02-20T04:02:44.758Z,94730.34
2018-02-20T04:05:12.197Z,94747.05
2018-02-20T04:07:39.855Z,94761.52
2018-02-20T04:10:08.129Z,94780.33
2018-02-20T04:12:35.617Z,94757.72
2018-02-20T04:15:03.059Z,94743.48
2018-02-20T04:17:30.414Z,94745.47
2018-02-20T04:19:57.872Z,94748.59
2018-02-20T04:22:25.235Z,94748.45
2018-02-20T04:24:52.681Z,94737.95
2018-02-20T04:27:20.111Z,94792.24
2018-02-20T04:29:47.501Z,94743.08
2018-02-20T04:32:14.899Z,94770.86
2018-02-20T04:34:42.400Z,94720.66
2018-02-20T04:37:09.752Z,94769.89
2018-02-20T04:39:37.159Z,94720.75
2018-02-20T04:42:04.686Z,94658.05
2018-02-20T04:44:32.104Z,94764.36
2018-02-20T04:46:59.757Z,94713.90
2018-02-20T04:49:27.135Z,94751.41
2018-02-20T04:51:54.673Z,94753.41
2018-02-20T04:54:22.236Z,94752.79
2018-02-20T04:56:49.592Z,94740.88
2018-02-20T04:59:17.091Z,94690.41
2018-02-20T05:01:44.535Z,94734.95
2018-02-20T05:04:12.007Z,94592.20
2018-02-20T05:06:39.369Z,94741.48
2018-02-20T05:09:06.966Z,94767.49
2018-02-20T05:11:34.406Z,94720.09
2018-02-20T05:14:01.868Z,94753.05
2018-02-20T05:16:29.874Z,94693.19
2018-02-20T05:18:57.286Z,94765.77
2018-02-20T05:21:24.687Z,94769.95
2018-02-20T05:23:52.080Z,94783.19
2018-02-20T05:26:19.854Z,94746.31
2018-02-20T05:28:47.292Z,94769.58
2018-02-20T05:31:15.024Z,94740.70
2018-02-20T05:33:42.624Z,94787.73
2018-02-20T05:36:10.216Z,94770.95
2018-02-20T05:38:37.639Z,94792.50
2018-02-20T05:41:05.044Z,94790.86
2018-02-20T05:43:32.427Z,94749.48
2018-02-20T05:45:59.842Z,94794.52
2018-02-20T05:48:27.312Z,94784.26
2018-02-20T05:50:54.679Z,94797.94
2018-02-20T05:53:22.087Z,94791.27
2018-02-20T05:55:50.166Z,94784.17
2018-02-20T05:58:17.682Z,94785.48
2018-02-20T06:00:45.251Z,94797.47
2018-02-20T06:03:12.683Z,94753.00
2018-02-20T06:05:40.288Z,94807.52
2018-02-20T06:08:07.652Z,94790.59
2018-02-20T06:10:35.095Z,94802.33
2018-02-20T06:13:03.492Z,94779.66
2018-02-20T06:15:31.018Z,94779.32
2018-02-20T06:18:55.658Z,94693.61
2018-02-20T06:21:23.023Z,94604.66
2018-02-20T06:23:50.366Z,94685.92
2018-02-20T06:26:17.895Z,94759.22
2018-02-20T06:28:45.416Z,94786.28
2018-02-20T06:31:12.903Z,94722.98
2018-02-20T06:33:40.506Z,94762.76
2018-02-20T06:36:07.871Z,94783.36
2018-02-20T06:38:35.282Z,94732.34
2018-02-20T06:41:02.679Z,94772.41
2018-02-20T06:43:30.132Z,94786.02
2018-02-20T06:45:58.059Z,94761.45
2018-02-20T06:48:26.369Z,94777.38
2018-02-20T06:50:53.771Z,94780.17
2018-02-20T06:53:21.204Z,94598.82
2018-02-20T06:55:48.583Z,94781.02
2018-02-20T06:58:16.039Z,94701.72
2018-02-20T07:00:43.654Z,94782.07
2018-02-20T07:03:12.191Z,94757.16
2018-02-20T07:05:39.591Z,94742.92
2018-02-20T07:08:07.012Z,94750.95
2018-02-20T07:10:34.621Z,94716.77
2018-02-20T07:13:02.037Z,94695.77
2018-02-20T07:15:29.445Z,94571.52
2018-02-20T07:17:56.891Z,94786.02
2018-02-20T07:20:24.708Z,94779.11
2018-02-20T07:22:52.248Z,94762.75
2018-02-20T07:25:19.735Z,94768.70
2018-02-20T07:27:47.104Z,94726.92
2018-02-20T07:30:14.645Z,94744.38
2018-02-20T07:32:43.122Z,94710.45
2018-02-20T07:35:10.674Z,94668.74
2018-02-20T07:37:38.129Z,94780.69
2018-02-20T07:40:05.518Z,94720.34
2018-02-20T07:42:32.948Z,94793.48
2018-02-20T07:45:00.409Z,94733.16
2018-02-20T07:47:27.846Z,94739.81
2018-02-20T07:49:55.495Z,94731.94
2018-02-20T07:52:22.963Z,94740.03
2018-02-20T07:54:50.347Z,94613.16
2018-02-20T07:57:17.759Z,94720.78
2018-02-20T07:59:45.247Z,94773.25
2018-02-20T08:02:12.658Z,94678.73
2018-02-20T08:04:40.187Z,94733.95
2018-02-20T08:07:07.630Z,94752.42
2018-02-20T08:09:35.217Z,94657.59
2018-02-20T08:12:02.746Z,94726.06
2018-02-20T08:14:30.202Z,94793.19
2018-02-20T08:16:57.626Z,94731.12
2018-02-20T08:19:25.131Z,94767.45
2018-02-20T08:21:52.512Z,94727.51
2018-02-20T08:24:20.082Z,94726.82
2018-02-20T08:26:47.546Z,94766.47
2018-02-20T08:29:15.051Z,94645.59
2018-02-20T08:31:42.528Z,94737.29
2018-02-20T08:34:09.928Z,94722.86
2018-02-20T08:36:37.461Z,94737.20
2018-02-20T08:39:05.585Z,94748.89
2018-02-20T08:41:33.460Z,94727.08
2018-02-20T08:44:01.106Z,94599.70
2018-02-20T08:46:28.715Z,94658.11
2018-02-20T08:48:56.178Z,94694.38
2018-02-20T08:51:23.733Z,94749.45
2018-02-20T08:53:51.467Z,94719.96
2018-02-20T08:56:19.124Z,94732.55
2018-02-20T08:58:51.341Z,94619.09
2018-02-20T09:01:18.956Z,94708.21
2018-02-20T09:03:47.561Z,94624.95
2018-02-20T09:06:15.069Z,94718.59
2018-02-20T09:08:42.774Z,94696.73
2018-02-20T09:11:10.258Z,94633.25
2018-02-20T09:13:43.128Z,94644.17
2018-02-20T09:16:10.638Z,94684.48
2018-02-20T09:18:38.465Z,94723.97
2018-02-20T09:21:05.911Z,94708.60
2018-02-20T09:23:33.312Z,94675.13
2018-02-20T09:26:01.553Z,94703.30
2018-02-20T09:28:29.143Z,94571.80
2018-02-20T09:30:56.743Z,94721.74
2018-02-20T09:33:26.065Z,94612.20
2018-02-20T09:35:53.850Z,94564.81
2018-02-20T09:38:21.263Z,94573.19
2018-02-20T09:40:48.812Z,94733.91
2018-02-20T09:43:16.309Z,94725.27
2018-02-20T09:45:43.916Z,94646.33
2018-02-20T09:48:11.821Z,94708.93
2018-02-20T09:50:40.276Z,94691.62
2018-02-20T09:53:07.832Z,94685.02
2018-02-20T09:55:35.496Z,94636.93
2018-02-20T09:58:03.582Z,94697.72
2018-02-20T10:00:31.153Z,94606.81
2018-02-20T10:02:59.029Z,94564.01
2018-02-20T10:05:26.641Z,94701.95
2018-02-20T10:07:54.041Z,94593.59
2018-02-20T10:10:21.471Z,94715.24
2018-02-20T10:12:49.449Z,94657.87
2018-02-20T10:15:17.620Z,94621.28
2018-02-20T10:17:45.191Z,94592.85
2018-02-20T10:20:12.862Z,94634.17
2018-02-20T10:22:40.921Z,94679.99
2018-02-20T10:25:08.704Z,94595.89
2018-02-20T10:27:36.352Z,94655.64
2018-02-20T10:30:04.077Z,94619.55
2018-02-20T10:32:33.252Z,94655.77
2018-02-20T10:35:01.211Z,94591.44
2018-02-20T10:37:28.855Z,94511.25
2018-02-20T10:40:14.959Z,94693.87
2018-02-20T10:42:47.337Z,94644.05
2018-02-20T10:45:15.261Z,94641.06
2018-02-20T10:47:42.951Z,94579.66
2018-02-20T10:50:10.720Z,94640.64
2018-02-20T10:52:40.745Z,94667.04
2018-02-20T10:55:09.321Z,94560.05
2018-02-20T10:57:37.098Z,94552.73
2018-02-20T11:06:15.753Z,94656.66
2018-02-20T11:08:58.512Z,94546.36
2018-02-20T11:11:42.370Z,94621.80
2018-02-20T11:14:26.284Z,94460.34
2018-02-20T11:16:57.962Z,94612.94
2018-02-20T11:19:25.624Z,94583.56
2018-02-20T11:21:53.169Z,94548.09
2018-02-20T11:24:21.046Z,94632.42
2018-02-20T11:26:48.833Z,94556.17
2018-02-20T11:29:16.858Z,94591.88
2018-02-20T11:31:47.612Z,94521.02
2018-02-20T11:34:15.386Z,94610.77
2018-02-20T11:36:43.163Z,94585.56
2018-02-20T11:39:11.020Z,94553.45
2018-02-20T11:41:38.763Z,94564.25
2018-02-20T11:44:06.670Z,94502.14
2018-02-20T11:46:34.434Z,94535.34
2018-02-20T11:49:02.483Z,94484.75
2018-02-20T11:51:30.394Z,94557.16
2018-02-20T11:53:58.323Z,94562.83
2018-02-20T11:56:26.366Z,94518.31
2018-02-20T11:58:54.160Z,94522.95
2018-02-20T12:01:22.111Z,94472.42
2018-02-20T12:03:49.956Z,94513.10
2018-02-20T12:06:17.895Z,94590.66
2018-02-20T12:08:45.638Z,94524.89
2018-02-20T12:11:13.391Z,94476.45
2018-02-20T12:13:40.861Z,94565.33
2018-02-20T12:16:08.682Z,94534.95
2018-02-20T12:18:36.488Z,94477.45
2018-02-20T12:21:04.029Z,94582.87
2018-02-20T12:23:31.603Z,94586.91
2018-02-20T12:25:59.358Z,94435.58
2018-02-20T12:28:27.097Z,94571.45
2018-02-20T12:30:55.815Z,94501.94
2018-02-20T12:33:23.829Z,94523.16
2018-02-20T12:35:51.396Z,94556.09
2018-02-20T12:38:19.219Z,94493.41
2018-02-20T12:40:47.483Z,94473.60
2018-02-20T12:43:15.243Z,94517.30
2018-02-20T12:45:42.961Z,94515.22
2018-02-20T12:48:10.785Z,94473.88
2018-02-20T12:50:38.815Z,94416.86
2018-02-20T12:53:06.319Z,94549.00
2018-02-20T12:55:33.920Z,94452.40
2018-02-20T12:58:01.595Z,94580.95
2018-02-20T13:00:29.313Z,94500.43
2018-02-20T13:02:57.056Z,94494.73
2018-02-20T13:05:24.458Z,94531.61
2018-02-20T13:07:51.977Z,94544.28
2018-02-20T13:10:19.424Z,94561.50
2018-02-20T13:12:47.011Z,94465.42
2018-02-20T13:15:14.493Z,94559.27
2018-02-20T13:17:42.193Z,94563.12
2018-02-20T13:20:10.473Z,94555.12
2018-02-20T13:22:38.314Z,94490.34
2018-02-20T13:25:10.128Z,94536.60
2018-02-20T13:27:38.776Z,94558.16
2018-02-20T13:30:06.832Z,94535.00
2018-02-20T13:32:34.644Z,94410.20
2018-02-20T13:35:02.349Z,94344.64
2018-02-20T13:37:29.965Z,94403.66
2018-02-20T13:39:58.778Z,94414.75
2018-02-20T13:42:27.404Z,94488.11
2018-02-20T13:44:55.281Z,94490.16
2018-02-20T13:47:23.706Z,94541.22
2018-02-20T13:49:52.352Z,94467.08
2018-02-20T13:52:20.300Z,94530.06
2018-02-20T13:54:48.585Z,94410.89
2018-02-20T13:57:16.460Z,94427.32
2018-02-20T13:59:44.249Z,94427.12
2018-02-20T14:02:14.626Z,94461.00
2018-02-20T14:04:42.332Z,94519.68
2018-02-20T14:07:10.592Z,94475.63
2018-02-20T14:09:39.255Z,94432.77
2018-02-20T14:12:07.078Z,94417.17
2018-02-20T14:14:36.296Z,94427.38
2018-02-20T14:17:04.204Z,94511.67
2018-02-20T14:22:45.616Z,94485.14
2018-02-20T14:25:13.245Z,94416.79
2018-02-20T14:27:42.172Z,94536.93
2018-02-20T14:30:10.474Z,94435.70
2018-02-20T14:32:39.411Z,94533.48
2018-02-20T14:35:07.390Z,94434.60
2018-02-20T14:37:35.549Z,94460.79
2018-02-20T14:40:06.881Z,94419.71
2018-02-20T14:42:34.823Z,94489.65
2018-02-20T14:45:02.394Z,94415.17
2018-02-20T14:47:30.082Z,94388.16
2018-02-20T14:55:45.050Z,94491.58
2018-02-20T14:58:13.640Z,94519.38
2018-02-20T15:00:44.607Z,94485.41
2018-02-20T15:03:14.267Z,94491.75
2018-02-20T15:05:41.980Z,94476.90
2018-02-20T15:08:11.449Z,94400.73
2018-02-20T15:10:39.427Z,94385.34
2018-02-20T15:13:12.340Z,94400.41
2018-02-20T15:15:40.590Z,94440.61
2018-02-20T15:18:08.325Z,94488.31
2018-02-20T15:20:35.860Z,94468.20
2018-02-20T15:23:03.375Z,94487.03
2018-02-20T15:25:30.876Z,94540.27
2018-02-20T15:27:58.297Z,94450.12
2018-02-20T15:30:25.785Z,94417.15
2018-02-20T15:32:54.847Z,94532.91
2018-02-20T15:35:22.707Z,94514.39
2018-02-20T15:37:50.090Z,94497.87
2018-02-20T15:40:17.633Z,94455.84
2018-02-20T15:42:45.079Z,94476.34
2018-02-20T15:45:12.419Z,94438.59
2018-02-20T15:47:39.843Z,94399.65
2018-02-20T15:50:07.234Z,94380.30
2018-02-20T15:52:34.829Z,94473.57
2018-02-20T15:55:02.407Z,94479.03
2018-02-20T15:57:29.866Z,94522.92
2018-02-20T15:59:57.282Z,94485.69
2018-02-20T16:02:24.632Z,94510.45
2018-02-20T16:04:52.072Z,94440.30
2018-02-20T16:07:19.467Z,94438.31
2018-02-20T16:09:47.006Z,94471.01
2018-02-20T16:12:14.379Z,94454.11
2018-02-20T16:14:41.788Z,94530.66
2018-02-20T16:17:09.372Z,94464.53
2018-02-20T16:19:36.724Z,94512.25
2018-02-20T16:22:04.207Z,94504.22
2018-02-20T16:24:31.791Z,94445.52
2018-02-20T16:26:59.188Z,94507.92
2018-02-20T16:29:26.602Z,94496.70
2018-02-20T16:31:53.982Z,94504.28
2018-02-20T16:34:21.323Z,94513.70
2018-02-20T16:36:48.724Z,94385.15
2018-02-20T16:39:16.119Z,94507.66
2018-02-20T16:41:43.603Z,94488.86
2018-02-20T16:44:11.047Z,94493.73
2018-02-20T16:46:38.479Z,94494.30
2018-02-20T16:49:05.828Z,94437.23
2018-02-20T16:51:33.214Z,94509.12
2018-02-20T16:54:00.612Z,94490.37
2018-02-20T16:56:27.966Z,94421.25
2018-02-20T16:58:55.351Z,94508.42
2018-02-20T17:01:22.850Z,94525.14
2018-02-20T17:03:50.240Z,94489.15
2018-02-20T17:06:17.622Z,94511.21
2018-02-20T17:08:44.983Z,94486.48
2018-02-20T17:11:12.328Z,94461.17
2018-02-20T17:13:39.819Z,94457.52
2018-02-20T17:16:07.166Z,94519.52
2018-02-20T17:18:34.506Z,94522.74
2018-02-20T17:21:01.876Z,94520.05
2018-02-20T17:23:29.217Z,94500.61
2018-02-20T17:25:56.580Z,94502.48
2018-02-20T17:28:23.962Z,94516.80
2018-02-20T17:30:51.400Z,94500.55
2018-02-20T17:33:18.802Z,94458.31
2018-02-20T17:35:46.220Z,94522.33
2018-02-20T17:38:13.642Z,94522.42
2018-02-20T17:40:41.005Z,94524.84
2018-02-20T17:43:08.350Z,94528.33
2018-02-20T17:45:35.884Z,94523.08
2018-02-20T17:48:03.237Z,94520.30
2018-02-20T17:50:30.593Z,94510.33
2018-02-20T17:52:57.938Z,94491.30
2018-02-20T17:55:25.307Z,94510.30
2018-02-20T17:57:52.732Z,94493.93
2018-02-20T18:00:20.108Z,94527.23
2018-02-20T18:02:47.461Z,94521.28
2018-02-20T18:05:14.811Z,94526.00
2018-02-20T18:07:42.266Z,94430.03
2018-02-20T18:10:09.630Z,94475.02
2018-02-20T18:12:37.030Z,94412.88
2018-02-20T18:15:04.416Z,94500.71
2018-02-20T18:17:31.762Z,94505.07
2018-02-20T18:19:59.141Z,94519.87
2018-02-20T18:22:26.520Z,94502.47
2018-02-20T18:24:53.909Z,94506.05
2018-02-20T18:27:21.246Z,94509.02
2018-02-20T18:29:48.591Z,94516.41
2018-02-20T18:32:15.928Z,94480.65
2018-02-20T18:34:43.344Z,94511.52
2018-02-20T18:37:10.831Z,94527.81
2018-02-20T18:39:38.178Z,94479.98
2018-02-20T18:42:05.596Z,94509.36
2018-02-20T18:44:32.944Z,94493.06
2018-02-20T18:47:00.287Z,94463.67
2018-02-20T18:49:27.630Z,94514.25
2018-02-20T18:51:54.980Z,94530.19
2018-02-20T18:54:22.334Z,94494.80
2018-02-20T18:56:49.688Z,94476.47
2018-02-20T18:59:17.031Z,94511.68
2018-02-20T19:01:44.368Z,94524.30
2018-02-20T19:04:11.744Z,94511.36
2018-02-20T19:06:39.095Z,94491.94
2018-02-20T19:09:06.468Z,94486.42
2018-02-20T19:11:33.812Z,94520.34
2018-02-20T19:14:01.148Z,94440.88
2018-02-20T19:16:28.693Z,94460.34
2018-02-20T19:18:56.048Z,94518.38
2018-02-20T19:21:23.478Z,94527.46
2018-02-20T19:23:50.879Z,94452.85
2018-02-20T19:26:18.229Z,94515.02
2018-02-20T19:28:45.572Z,94514.64
2018-02-20T19:31:13.008Z,94471.81
2018-02-20T19:33:40.438Z,94512.23
2018-02-20T19:36:07.880Z,94509.50
2018-02-20T19:38:35.243Z,94517.80
2018-02-20T19:41:02.595Z,94504.06
2018-02-20T19:43:29.983Z,94484.25
2018-02-20T19:45:57.457Z,94421.01
2018-02-20T19:48:24.868Z,94483.25
2018-02-20T19:50:52.207Z,94488.45
2018-02-20T19:53:19.561Z,94502.73
2018-02-20T19:55:46.922Z,94467.61
2018-02-20T19:58:14.354Z,94442.58
2018-02-20T20:00:41.749Z,94491.55
2018-02-20T20:03:09.092Z,94475.25
2018-02-20T20:05:36.446Z,94482.43
2018-02-20T20:08:03.784Z,94469.86
2018-02-20T20:10:31.171Z,94511.42
2018-02-20T20:12:58.587Z,94498.06
2018-02-20T20:15:25.928Z,94490.92
2018-02-20T20:17:53.336Z,94442.89
2018-02-20T20:20:20.708Z,94484.99
2018-02-20T20:22:48.051Z,94457.95
2018-02-20T20:25:15.395Z,94478.31
2018-02-20T20:27:42.734Z,94440.62
2018-02-20T20:30:10.157Z,94414.44
2018-02-20T20:32:37.532Z,94443.84
2018-02-20T20:35:04.874Z,94423.65
2018-02-20T20:37:32.215Z,94465.53
2018-02-20T20:39:59.559Z,94437.50
2018-02-20T20:42:26.905Z,94475.99
2018-02-20T20:44:54.251Z,94371.46
2018-02-20T20:47:21.619Z,94440.67
2018-02-20T20:49:48.988Z,94455.33
2018-02-20T20:52:16.374Z,94448.69
2018-02-20T20:54:43.774Z,94469.49
2018-02-20T20:57:11.171Z,94466.61
2018-02-20T20:59:39.359Z,94431.66
2018-02-20T21:02:06.741Z,94465.64
2018-02-20T21:04:34.084Z,94463.91
2018-02-20T21:07:01.426Z,94471.22
2018-02-20T21:09:28.915Z,94452.87
2018-02-20T21:11:56.300Z,94454.95
2018-02-20T21:14:23.837Z,94402.98
2018-02-20T21:16:51.325Z,94474.81
2018-02-20T21:19:18.682Z,94417.27
2018-02-20T21:21:46.070Z,94450.21
2018-02-20T21:24:13.514Z,94475.40
2018-02-20T21:26:40.957Z,94441.78
2018-02-20T21:29:08.311Z,94453.31
2018-02-20T21:31:35.785Z,94462.16
2018-02-20T21:34:03.116Z,94415.33
2018-02-20T21:36:30.568Z,94471.97
2018-02-20T21:38:57.909Z,94472.56
2018-02-20T21:41:25.250Z,94446.10
2018-02-20T21:43:52.799Z,94474.85
2018-02-20T21:46:20.175Z,94490.66
2018-02-20T21:48:47.678Z,94474.13
2018-02-20T21:51:15.034Z,94435.55
2018-02-20T21:53:42.474Z,94380.88
2018-02-20T21:56:09.954Z,94475.34
2018-02-20T21:58:37.559Z,94445.29
2018-02-20T22:01:05.427Z,94476.32
2018-02-20T22:03:32.853Z,94476.43
2018-02-20T22:06:00.368Z,94474.85
2018-02-20T22:08:27.770Z,94459.42
2018-02-20T22:10:55.151Z,94478.68
2018-02-20T22:13:22.532Z,94438.92
2018-02-20T22:15:49.904Z,94480.11
2018-02-20T22:18:17.348Z,94418.00
2018-02-20T22:20:44.774Z,94420.72
2018-02-20T22:23:12.789Z,94397.58
2018-02-20T22:25:40.155Z,94454.73
2018-02-20T22:28:07.808Z,94458.13
2018-02-20T22:30:35.356Z,94468.56
2018-02-20T22:33:02.871Z,94453.75
2018-02-20T22:35:30.238Z,94467.31
2018-02-20T22:37:57.651Z,94431.59
2018-02-20T22:40:25.021Z,94432.44
2018-02-20T22:42:52.456Z,94416.88
2018-02-20T22:45:20.005Z,94394.03
2018-02-20T22:47:47.413Z,94439.89
2018-02-20T22:50:14.756Z,94372.96
2018-02-20T22:52:42.167Z,94466.75
2018-02-20T22:55:09.570Z,94445.54
2018-02-20T22:57:36.954Z,94475.25
2018-02-20T23:00:04.412Z,94455.00
2018-02-20T23:02:31.820Z,94467.91
2018-02-20T23:04:59.210Z,94425.64
2018-02-20T23:07:26.566Z,94474.92
2018-02-20T23:09:54.121Z,94484.09
2018-02-20T23:12:21.535Z,94471.01
2018-02-20T23:14:48.904Z,94470.67
2018-02-20T23:17:17.222Z,94446.28
2018-02-20T23:19:44.695Z,94457.91
2018-02-20T23:22:12.336Z,94456.05
2018-02-20T23:24:39.710Z,94453.78
2018-02-20T23:27:07.244Z,94441.09
2018-02-20T23:29:34.628Z,94404.22
2018-02-20T23:32:02.134Z,94412.13
2018-02-20T23:34:29.805Z,94470.92
2018-02-20T23:36:57.194Z,94462.06
2018-02-20T23:39:24.554Z,94466.91
2018-02-20T23:41:51.970Z,94469.35
2018-02-20T23:44:19.374Z,94407.05
2018-02-20T23:46:46.778Z,94458.31
2018-02-20T23:49:14.678Z,94465.73
2018-02-20T23:51:42.150Z,94463.55
2018-02-20T23:54:09.641Z,94444.27
2018-02-20T23:56:37.030Z,94469.30
2018-02-20T23:59:04.672Z,94471.94
